sensor_id;sensor_type;location;lat;lon;timestamp;P1;durP1;ratioP1;P2;durP2;ratioP2
84668;SDS011;74897;42.704;23.318;2024-03-06T00:00:21;17.90;;;9.48;;
84668;SDS011;74897;42.704;23.318;2024-03-06T00:02:47;17.25;;;9.20;;
84668;SDS011;74897;42.704;23.318;2024-03-06T00:05:13;20.17;;;9.98;;
84668;SDS011;74897;42.704;23.318;2024-03-06T00:07:38;15.57;;;8.88;;
84668;SDS011;74897;42.704;23.318;2024-03-06T00:10:03;16.55;;;8.27;;
84668;SDS011;74897;42.704;23.318;2024-03-06T00:12:30;16.40;;;8.43;;
84668;SDS011;74897;42.704;23.318;2024-03-06T00:14:55;18.20;;;9.23;;
84668;SDS011;74897;42.704;23.318;2024-03-06T00:17:20;16.80;;;8.73;;
84668;SDS011;74897;42.704;23.318;2024-03-06T00:19:46;21.83;;;9.80;;
84668;SDS011;74897;42.704;23.318;2024-03-06T00:22:11;16.55;;;9.70;;
84668;SDS011;74897;42.704;23.318;2024-03-06T00:24:36;20.50;;;10.98;;
84668;SDS011;74897;42.704;23.318;2024-03-06T00:27:02;21.00;;;10.02;;
84668;SDS011;74897;42.704;23.318;2024-03-06T00:29:29;21.85;;;10.02;;
84668;SDS011;74897;42.704;23.318;2024-03-06T00:31:54;20.17;;;9.85;;
84668;SDS011;74897;42.704;23.318;2024-03-06T00:34:20;20.38;;;10.10;;
84668;SDS011;74897;42.704;23.318;2024-03-06T00:36:45;16.48;;;10.70;;
84668;SDS011;74897;42.704;23.318;2024-03-06T00:39:10;22.20;;;9.90;;
84668;SDS011;74897;42.704;23.318;2024-03-06T00:41:36;20.42;;;9.90;;
84668;SDS011;74897;42.704;23.318;2024-03-06T00:44:01;21.58;;;10.77;;
84668;SDS011;74897;42.704;23.318;2024-03-06T00:46:27;17.33;;;9.43;;
84668;SDS011;74897;42.704;23.318;2024-03-06T00:48:52;19.83;;;10.85;;
84668;SDS011;74897;42.704;23.318;2024-03-06T00:51:18;21.08;;;10.85;;
84668;SDS011;74897;42.704;23.318;2024-03-06T00:53:44;23.85;;;12.43;;
84668;SDS011;74897;42.704;23.318;2024-03-06T00:56:09;20.05;;;10.98;;
84668;SDS011;74897;42.704;23.318;2024-03-06T00:58:35;19.83;;;10.55;;
84668;SDS011;74897;42.704;23.318;2024-03-06T01:01:00;21.38;;;10.48;;
84668;SDS011;74897;42.704;23.318;2024-03-06T01:03:25;21.77;;;11.27;;
84668;SDS011;74897;42.704;23.318;2024-03-06T01:05:51;28.35;;;10.45;;
84668;SDS011;74897;42.704;23.318;2024-03-06T01:08:21;20.70;;;11.40;;
84668;SDS011;74897;42.704;23.318;2024-03-06T01:10:46;24.33;;;11.82;;
84668;SDS011;74897;42.704;23.318;2024-03-06T01:13:12;19.47;;;11.53;;
84668;SDS011;74897;42.704;23.318;2024-03-06T01:15:37;19.60;;;10.98;;
84668;SDS011;74897;42.704;23.318;2024-03-06T01:18:03;20.52;;;10.82;;
84668;SDS011;74897;42.704;23.318;2024-03-06T01:20:29;22.45;;;11.38;;
84668;SDS011;74897;42.704;23.318;2024-03-06T01:22:54;22.08;;;12.10;;
84668;SDS011;74897;42.704;23.318;2024-03-06T01:25:20;19.40;;;10.07;;
84668;SDS011;74897;42.704;23.318;2024-03-06T01:27:47;23.77;;;11.00;;
84668;SDS011;74897;42.704;23.318;2024-03-06T01:30:12;20.55;;;10.15;;
84668;SDS011;74897;42.704;23.318;2024-03-06T01:32:37;22.02;;;10.85;;
84668;SDS011;74897;42.704;23.318;2024-03-06T01:35:03;25.92;;;10.90;;
84668;SDS011;74897;42.704;23.318;2024-03-06T01:37:30;22.85;;;10.68;;
84668;SDS011;74897;42.704;23.318;2024-03-06T01:39:55;20.08;;;9.82;;
84668;SDS011;74897;42.704;23.318;2024-03-06T01:42:21;18.85;;;9.18;;
84668;SDS011;74897;42.704;23.318;2024-03-06T01:44:46;18.98;;;10.30;;
84668;SDS011;74897;42.704;23.318;2024-03-06T01:47:11;17.90;;;10.98;;
84668;SDS011;74897;42.704;23.318;2024-03-06T01:49:37;20.63;;;10.68;;
84668;SDS011;74897;42.704;23.318;2024-03-06T01:52:02;22.45;;;11.00;;
84668;SDS011;74897;42.704;23.318;2024-03-06T01:54:28;19.58;;;9.68;;
84668;SDS011;74897;42.704;23.318;2024-03-06T01:56:53;16.20;;;9.75;;
84668;SDS011;74897;42.704;23.318;2024-03-06T01:59:20;17.23;;;10.27;;
84668;SDS011;74897;42.704;23.318;2024-03-06T02:01:46;19.23;;;9.90;;
84668;SDS011;74897;42.704;23.318;2024-03-06T02:04:12;22.30;;;11.18;;
84668;SDS011;74897;42.704;23.318;2024-03-06T02:06:40;20.80;;;10.27;;
84668;SDS011;74897;42.704;23.318;2024-03-06T02:09:06;21.33;;;10.50;;
84668;SDS011;74897;42.704;23.318;2024-03-06T02:11:34;20.20;;;10.30;;
84668;SDS011;74897;42.704;23.318;2024-03-06T02:13:59;20.73;;;10.15;;
84668;SDS011;74897;42.704;23.318;2024-03-06T02:16:25;18.40;;;10.40;;
84668;SDS011;74897;42.704;23.318;2024-03-06T02:18:52;22.60;;;11.65;;
84668;SDS011;74897;42.704;23.318;2024-03-06T02:21:19;22.98;;;11.82;;
84668;SDS011;74897;42.704;23.318;2024-03-06T02:23:44;19.30;;;10.07;;
84668;SDS011;74897;42.704;23.318;2024-03-06T02:26:10;26.52;;;11.77;;
84668;SDS011;74897;42.704;23.318;2024-03-06T02:28:35;24.42;;;11.65;;
84668;SDS011;74897;42.704;23.318;2024-03-06T02:31:01;19.85;;;10.77;;
84668;SDS011;74897;42.704;23.318;2024-03-06T02:33:27;23.23;;;12.55;;
84668;SDS011;74897;42.704;23.318;2024-03-06T02:35:52;20.33;;;10.77;;
84668;SDS011;74897;42.704;23.318;2024-03-06T02:38:17;20.98;;;11.20;;
84668;SDS011;74897;42.704;23.318;2024-03-06T02:40:43;20.92;;;11.02;;
84668;SDS011;74897;42.704;23.318;2024-03-06T02:43:09;21.15;;;10.50;;
84668;SDS011;74897;42.704;23.318;2024-03-06T02:45:34;21.33;;;11.03;;
84668;SDS011;74897;42.704;23.318;2024-03-06T02:48:00;24.00;;;12.07;;
84668;SDS011;74897;42.704;23.318;2024-03-06T02:50:25;25.40;;;10.23;;
84668;SDS011;74897;42.704;23.318;2024-03-06T02:52:50;20.45;;;11.10;;
84668;SDS011;74897;42.704;23.318;2024-03-06T02:55:16;22.60;;;11.48;;
84668;SDS011;74897;42.704;23.318;2024-03-06T02:57:42;21.50;;;10.25;;
84668;SDS011;74897;42.704;23.318;2024-03-06T03:00:07;21.60;;;9.73;;
84668;SDS011;74897;42.704;23.318;2024-03-06T03:02:38;20.58;;;9.68;;
84668;SDS011;74897;42.704;23.318;2024-03-06T03:05:03;24.08;;;10.57;;
84668;SDS011;74897;42.704;23.318;2024-03-06T03:07:29;19.80;;;9.45;;
84668;SDS011;74897;42.704;23.318;2024-03-06T03:09:55;18.10;;;9.75;;
84668;SDS011;74897;42.704;23.318;2024-03-06T03:12:20;18.52;;;9.73;;
84668;SDS011;74897;42.704;23.318;2024-03-06T03:14:46;22.50;;;10.45;;
84668;SDS011;74897;42.704;23.318;2024-03-06T03:17:11;20.98;;;9.60;;
84668;SDS011;74897;42.704;23.318;2024-03-06T03:19:37;18.50;;;9.15;;
84668;SDS011;74897;42.704;23.318;2024-03-06T03:22:05;18.85;;;9.93;;
84668;SDS011;74897;42.704;23.318;2024-03-06T03:24:30;24.95;;;11.35;;
84668;SDS011;74897;42.704;23.318;2024-03-06T03:26:55;22.60;;;10.80;;
84668;SDS011;74897;42.704;23.318;2024-03-06T03:29:21;19.95;;;11.02;;
84668;SDS011;74897;42.704;23.318;2024-03-06T03:31:46;18.65;;;10.75;;
84668;SDS011;74897;42.704;23.318;2024-03-06T03:34:11;22.65;;;12.40;;
84668;SDS011;74897;42.704;23.318;2024-03-06T03:36:43;21.45;;;10.63;;
84668;SDS011;74897;42.704;23.318;2024-03-06T03:39:10;17.00;;;10.32;;
84668;SDS011;74897;42.704;23.318;2024-03-06T03:41:47;22.17;;;10.57;;
84668;SDS011;74897;42.704;23.318;2024-03-06T03:44:16;25.80;;;10.07;;
84668;SDS011;74897;42.704;23.318;2024-03-06T03:46:41;25.38;;;11.23;;
84668;SDS011;74897;42.704;23.318;2024-03-06T03:49:07;20.20;;;11.25;;
84668;SDS011;74897;42.704;23.318;2024-03-06T03:51:34;35.47;;;14.70;;
84668;SDS011;74897;42.704;23.318;2024-03-06T03:53:59;35.97;;;15.63;;
84668;SDS011;74897;42.704;23.318;2024-03-06T03:56:25;39.63;;;16.25;;
84668;SDS011;74897;42.704;23.318;2024-03-06T03:58:51;38.75;;;17.45;;
84668;SDS011;74897;42.704;23.318;2024-03-06T04:01:16;32.75;;;14.18;;
84668;SDS011;74897;42.704;23.318;2024-03-06T04:03:41;32.72;;;13.77;;
84668;SDS011;74897;42.704;23.318;2024-03-06T04:06:07;26.50;;;11.60;;
84668;SDS011;74897;42.704;23.318;2024-03-06T04:08:33;22.90;;;11.38;;
84668;SDS011;74897;42.704;23.318;2024-03-06T04:10:59;23.88;;;12.02;;
84668;SDS011;74897;42.704;23.318;2024-03-06T04:13:24;21.92;;;10.15;;
84668;SDS011;74897;42.704;23.318;2024-03-06T04:15:50;20.45;;;9.95;;
84668;SDS011;74897;42.704;23.318;2024-03-06T04:18:15;21.70;;;11.50;;
84668;SDS011;74897;42.704;23.318;2024-03-06T04:20:40;19.55;;;10.00;;
84668;SDS011;74897;42.704;23.318;2024-03-06T04:23:06;22.17;;;10.33;;
84668;SDS011;74897;42.704;23.318;2024-03-06T04:25:31;20.52;;;10.13;;
84668;SDS011;74897;42.704;23.318;2024-03-06T04:27:56;19.90;;;10.63;;
84668;SDS011;74897;42.704;23.318;2024-03-06T04:30:22;21.70;;;11.05;;
84668;SDS011;74897;42.704;23.318;2024-03-06T04:32:47;17.02;;;9.68;;
84668;SDS011;74897;42.704;23.318;2024-03-06T04:35:13;19.23;;;9.70;;
84668;SDS011;74897;42.704;23.318;2024-03-06T04:37:38;20.08;;;9.90;;
84668;SDS011;74897;42.704;23.318;2024-03-06T04:40:04;18.92;;;10.60;;
84668;SDS011;74897;42.704;23.318;2024-03-06T04:42:33;18.88;;;9.82;;
84668;SDS011;74897;42.704;23.318;2024-03-06T04:45:00;27.20;;;10.85;;
84668;SDS011;74897;42.704;23.318;2024-03-06T04:47:26;23.80;;;11.55;;
84668;SDS011;74897;42.704;23.318;2024-03-06T04:49:51;27.52;;;11.23;;
84668;SDS011;74897;42.704;23.318;2024-03-06T04:52:16;20.95;;;10.80;;
84668;SDS011;74897;42.704;23.318;2024-03-06T04:54:42;20.27;;;10.80;;
84668;SDS011;74897;42.704;23.318;2024-03-06T04:57:07;21.50;;;10.43;;
84668;SDS011;74897;42.704;23.318;2024-03-06T04:59:32;23.45;;;11.85;;
84668;SDS011;74897;42.704;23.318;2024-03-06T05:01:58;20.67;;;11.03;;
84668;SDS011;74897;42.704;23.318;2024-03-06T05:04:23;27.67;;;11.10;;
84668;SDS011;74897;42.704;23.318;2024-03-06T05:06:48;23.98;;;11.00;;
84668;SDS011;74897;42.704;23.318;2024-03-06T05:09:14;20.90;;;10.68;;
84668;SDS011;74897;42.704;23.318;2024-03-06T05:11:40;23.23;;;11.10;;
84668;SDS011;74897;42.704;23.318;2024-03-06T05:14:05;22.38;;;12.18;;
84668;SDS011;74897;42.704;23.318;2024-03-06T05:16:30;23.98;;;11.40;;
84668;SDS011;74897;42.704;23.318;2024-03-06T05:18:56;20.73;;;10.25;;
84668;SDS011;74897;42.704;23.318;2024-03-06T05:21:21;21.85;;;10.25;;
84668;SDS011;74897;42.704;23.318;2024-03-06T05:23:48;17.30;;;9.75;;
84668;SDS011;74897;42.704;23.318;2024-03-06T05:26:13;26.48;;;9.65;;
84668;SDS011;74897;42.704;23.318;2024-03-06T05:28:39;17.85;;;9.10;;
84668;SDS011;74897;42.704;23.318;2024-03-06T05:31:17;17.03;;;9.00;;
84668;SDS011;74897;42.704;23.318;2024-03-06T05:33:44;17.63;;;8.45;;
84668;SDS011;74897;42.704;23.318;2024-03-06T05:36:09;18.20;;;9.52;;
84668;SDS011;74897;42.704;23.318;2024-03-06T05:38:34;15.27;;;8.88;;
84668;SDS011;74897;42.704;23.318;2024-03-06T05:40:59;16.73;;;8.57;;
84668;SDS011;74897;42.704;23.318;2024-03-06T05:43:25;21.47;;;9.37;;
84668;SDS011;74897;42.704;23.318;2024-03-06T05:45:50;22.43;;;9.80;;
84668;SDS011;74897;42.704;23.318;2024-03-06T05:48:15;17.40;;;9.82;;
84668;SDS011;74897;42.704;23.318;2024-03-06T05:50:41;21.95;;;9.75;;
84668;SDS011;74897;42.704;23.318;2024-03-06T05:53:06;19.17;;;9.63;;
84668;SDS011;74897;42.704;23.318;2024-03-06T05:55:31;23.25;;;9.80;;
84668;SDS011;74897;42.704;23.318;2024-03-06T05:57:57;21.63;;;10.53;;
84668;SDS011;74897;42.704;23.318;2024-03-06T06:00:22;19.13;;;10.23;;
84668;SDS011;74897;42.704;23.318;2024-03-06T06:02:47;21.13;;;11.00;;
84668;SDS011;74897;42.704;23.318;2024-03-06T06:05:13;20.05;;;10.27;;
84668;SDS011;74897;42.704;23.318;2024-03-06T06:07:38;25.35;;;12.20;;
84668;SDS011;74897;42.704;23.318;2024-03-06T06:10:04;23.95;;;10.13;;
84668;SDS011;74897;42.704;23.318;2024-03-06T06:12:33;25.17;;;9.82;;
84668;SDS011;74897;42.704;23.318;2024-03-06T06:14:58;17.67;;;9.90;;
84668;SDS011;74897;42.704;23.318;2024-03-06T06:17:24;21.52;;;10.32;;
84668;SDS011;74897;42.704;23.318;2024-03-06T06:19:49;23.88;;;11.82;;
84668;SDS011;74897;42.704;23.318;2024-03-06T06:22:14;23.50;;;11.27;;
84668;SDS011;74897;42.704;23.318;2024-03-06T06:24:40;23.70;;;11.43;;
84668;SDS011;74897;42.704;23.318;2024-03-06T06:27:06;22.58;;;10.45;;
84668;SDS011;74897;42.704;23.318;2024-03-06T06:29:31;26.27;;;11.35;;
84668;SDS011;74897;42.704;23.318;2024-03-06T06:31:57;21.70;;;11.73;;
84668;SDS011;74897;42.704;23.318;2024-03-06T06:34:22;24.75;;;11.60;;
84668;SDS011;74897;42.704;23.318;2024-03-06T06:36:48;23.60;;;11.15;;
84668;SDS011;74897;42.704;23.318;2024-03-06T06:39:13;23.58;;;11.55;;
84668;SDS011;74897;42.704;23.318;2024-03-06T06:41:38;27.80;;;12.10;;
84668;SDS011;74897;42.704;23.318;2024-03-06T06:44:04;26.38;;;13.40;;
84668;SDS011;74897;42.704;23.318;2024-03-06T06:46:29;25.02;;;12.98;;
84668;SDS011;74897;42.704;23.318;2024-03-06T06:48:54;30.58;;;14.13;;
84668;SDS011;74897;42.704;23.318;2024-03-06T06:51:20;31.08;;;14.88;;
84668;SDS011;74897;42.704;23.318;2024-03-06T06:53:46;27.10;;;13.90;;
84668;SDS011;74897;42.704;23.318;2024-03-06T06:56:11;34.30;;;15.88;;
84668;SDS011;74897;42.704;23.318;2024-03-06T06:58:36;31.85;;;15.73;;
84668;SDS011;74897;42.704;23.318;2024-03-06T07:01:02;32.67;;;15.57;;
84668;SDS011;74897;42.704;23.318;2024-03-06T07:03:29;32.90;;;15.48;;
84668;SDS011;74897;42.704;23.318;2024-03-06T07:05:54;30.30;;;14.95;;
84668;SDS011;74897;42.704;23.318;2024-03-06T07:08:20;30.35;;;14.15;;
84668;SDS011;74897;42.704;23.318;2024-03-06T07:10:46;33.25;;;14.82;;
84668;SDS011;74897;42.704;23.318;2024-03-06T07:13:11;32.08;;;14.80;;
84668;SDS011;74897;42.704;23.318;2024-03-06T07:15:36;31.08;;;15.18;;
84668;SDS011;74897;42.704;23.318;2024-03-06T07:18:02;32.33;;;14.88;;
84668;SDS011;74897;42.704;23.318;2024-03-06T07:20:28;25.55;;;13.57;;
84668;SDS011;74897;42.704;23.318;2024-03-06T07:22:54;25.08;;;12.25;;
84668;SDS011;74897;42.704;23.318;2024-03-06T07:25:19;27.00;;;12.55;;
84668;SDS011;74897;42.704;23.318;2024-03-06T07:27:45;26.50;;;11.48;;
84668;SDS011;74897;42.704;23.318;2024-03-06T07:30:11;26.02;;;12.25;;
84668;SDS011;74897;42.704;23.318;2024-03-06T07:32:36;26.55;;;12.32;;
84668;SDS011;74897;42.704;23.318;2024-03-06T07:35:01;22.65;;;10.57;;
84668;SDS011;74897;42.704;23.318;2024-03-06T07:37:27;21.00;;;10.63;;
84668;SDS011;74897;42.704;23.318;2024-03-06T07:39:52;22.95;;;11.48;;
84668;SDS011;74897;42.704;23.318;2024-03-06T07:42:17;23.35;;;12.20;;
84668;SDS011;74897;42.704;23.318;2024-03-06T07:44:43;24.63;;;11.85;;
84668;SDS011;74897;42.704;23.318;2024-03-06T07:47:08;24.52;;;11.70;;
84668;SDS011;74897;42.704;23.318;2024-03-06T07:49:34;25.58;;;12.25;;
84668;SDS011;74897;42.704;23.318;2024-03-06T07:51:59;26.80;;;13.02;;
84668;SDS011;74897;42.704;23.318;2024-03-06T07:54:25;25.65;;;12.48;;
84668;SDS011;74897;42.704;23.318;2024-03-06T07:56:50;27.65;;;13.27;;
84668;SDS011;74897;42.704;23.318;2024-03-06T07:59:16;23.35;;;11.68;;
84668;SDS011;74897;42.704;23.318;2024-03-06T08:01:43;28.73;;;13.10;;
84668;SDS011;74897;42.704;23.318;2024-03-06T08:04:08;23.98;;;11.88;;
84668;SDS011;74897;42.704;23.318;2024-03-06T08:06:34;26.80;;;12.85;;
84668;SDS011;74897;42.704;23.318;2024-03-06T08:09:02;25.90;;;13.20;;
84668;SDS011;74897;42.704;23.318;2024-03-06T08:11:27;26.80;;;12.50;;
84668;SDS011;74897;42.704;23.318;2024-03-06T08:13:59;25.25;;;12.43;;
84668;SDS011;74897;42.704;23.318;2024-03-06T08:16:24;27.77;;;13.35;;
84668;SDS011;74897;42.704;23.318;2024-03-06T08:18:50;23.15;;;12.27;;
84668;SDS011;74897;42.704;23.318;2024-03-06T08:21:15;25.37;;;14.13;;
84668;SDS011;74897;42.704;23.318;2024-03-06T08:23:40;27.00;;;14.52;;
84668;SDS011;74897;42.704;23.318;2024-03-06T08:26:06;27.42;;;14.13;;
84668;SDS011;74897;42.704;23.318;2024-03-06T08:28:31;30.25;;;13.57;;
84668;SDS011;74897;42.704;23.318;2024-03-06T08:30:56;25.17;;;13.25;;
84668;SDS011;74897;42.704;23.318;2024-03-06T08:33:22;23.77;;;12.55;;
84668;SDS011;74897;42.704;23.318;2024-03-06T08:35:48;26.70;;;12.73;;
84668;SDS011;74897;42.704;23.318;2024-03-06T08:38:13;23.15;;;13.23;;
84668;SDS011;74897;42.704;23.318;2024-03-06T08:40:38;28.88;;;14.30;;
84668;SDS011;74897;42.704;23.318;2024-03-06T08:43:04;34.05;;;16.95;;
84668;SDS011;74897;42.704;23.318;2024-03-06T08:45:29;30.65;;;13.85;;
84668;SDS011;74897;42.704;23.318;2024-03-06T08:47:54;26.10;;;14.10;;
84668;SDS011;74897;42.704;23.318;2024-03-06T08:50:20;24.95;;;13.38;;
84668;SDS011;74897;42.704;23.318;2024-03-06T08:52:45;25.25;;;13.18;;
84668;SDS011;74897;42.704;23.318;2024-03-06T08:55:11;25.92;;;14.10;;
84668;SDS011;74897;42.704;23.318;2024-03-06T08:57:36;23.95;;;13.40;;
84668;SDS011;74897;42.704;23.318;2024-03-06T09:00:02;24.23;;;12.88;;
84668;SDS011;74897;42.704;23.318;2024-03-06T09:02:27;26.55;;;11.25;;
84668;SDS011;74897;42.704;23.318;2024-03-06T09:04:53;24.45;;;13.05;;
84668;SDS011;74897;42.704;23.318;2024-03-06T09:07:18;22.05;;;11.57;;
84668;SDS011;74897;42.704;23.318;2024-03-06T09:09:44;20.30;;;11.20;;
84668;SDS011;74897;42.704;23.318;2024-03-06T09:12:10;21.63;;;10.90;;
84668;SDS011;74897;42.704;23.318;2024-03-06T09:14:39;19.52;;;10.93;;
84668;SDS011;74897;42.704;23.318;2024-03-06T09:17:04;18.67;;;10.00;;
84668;SDS011;74897;42.704;23.318;2024-03-06T09:19:30;18.98;;;10.50;;
84668;SDS011;74897;42.704;23.318;2024-03-06T09:21:56;20.65;;;11.25;;
84668;SDS011;74897;42.704;23.318;2024-03-06T09:24:22;20.52;;;11.63;;
84668;SDS011;74897;42.704;23.318;2024-03-06T09:26:53;21.90;;;11.57;;
84668;SDS011;74897;42.704;23.318;2024-03-06T09:29:19;23.25;;;11.68;;
84668;SDS011;74897;42.704;23.318;2024-03-06T09:31:44;22.83;;;10.95;;
84668;SDS011;74897;42.704;23.318;2024-03-06T09:34:10;20.77;;;11.25;;
84668;SDS011;74897;42.704;23.318;2024-03-06T09:36:37;24.23;;;11.65;;
84668;SDS011;74897;42.704;23.318;2024-03-06T09:39:03;19.98;;;11.00;;
84668;SDS011;74897;42.704;23.318;2024-03-06T09:41:33;20.88;;;9.88;;
84668;SDS011;74897;42.704;23.318;2024-03-06T09:43:59;19.33;;;10.35;;
84668;SDS011;74897;42.704;23.318;2024-03-06T09:46:25;24.73;;;13.35;;
84668;SDS011;74897;42.704;23.318;2024-03-06T09:48:51;20.48;;;9.65;;
84668;SDS011;74897;42.704;23.318;2024-03-06T09:51:17;18.60;;;10.68;;
84668;SDS011;74897;42.704;23.318;2024-03-06T09:53:42;18.35;;;9.93;;
84668;SDS011;74897;42.704;23.318;2024-03-06T09:56:08;20.77;;;9.65;;
84668;SDS011;74897;42.704;23.318;2024-03-06T09:58:35;16.50;;;9.27;;
84668;SDS011;74897;42.704;23.318;2024-03-06T10:01:00;13.63;;;7.70;;
84668;SDS011;74897;42.704;23.318;2024-03-06T10:03:26;12.68;;;6.80;;
84668;SDS011;74897;42.704;23.318;2024-03-06T10:05:52;12.85;;;7.22;;
84668;SDS011;74897;42.704;23.318;2024-03-06T10:08:19;13.23;;;7.68;;
84668;SDS011;74897;42.704;23.318;2024-03-06T10:10:45;11.35;;;7.97;;
84668;SDS011;74897;42.704;23.318;2024-03-06T10:13:12;19.60;;;9.75;;
84668;SDS011;74897;42.704;23.318;2024-03-06T10:15:37;13.93;;;7.65;;
84668;SDS011;74897;42.704;23.318;2024-03-06T10:18:12;12.70;;;8.07;;
84668;SDS011;74897;42.704;23.318;2024-03-06T10:20:38;10.50;;;6.95;;
84668;SDS011;74897;42.704;23.318;2024-03-06T10:23:03;13.68;;;7.38;;
84668;SDS011;74897;42.704;23.318;2024-03-06T10:25:29;15.10;;;8.07;;
84668;SDS011;74897;42.704;23.318;2024-03-06T10:28:10;14.68;;;6.97;;
84668;SDS011;74897;42.704;23.318;2024-03-06T10:30:39;9.85;;;6.63;;
84668;SDS011;74897;42.704;23.318;2024-03-06T10:33:07;9.48;;;7.22;;
84668;SDS011;74897;42.704;23.318;2024-03-06T10:35:33;12.02;;;6.90;;
84668;SDS011;74897;42.704;23.318;2024-03-06T10:38:00;10.90;;;7.22;;
84668;SDS011;74897;42.704;23.318;2024-03-06T10:40:25;10.90;;;7.32;;
84668;SDS011;74897;42.704;23.318;2024-03-06T10:42:54;10.40;;;7.35;;
84668;SDS011;74897;42.704;23.318;2024-03-06T10:45:20;15.35;;;8.32;;
84668;SDS011;74897;42.704;23.318;2024-03-06T10:47:48;9.63;;;7.28;;
84668;SDS011;74897;42.704;23.318;2024-03-06T10:50:15;13.70;;;8.50;;
84668;SDS011;74897;42.704;23.318;2024-03-06T10:52:40;10.48;;;7.13;;
84668;SDS011;74897;42.704;23.318;2024-03-06T10:55:06;19.42;;;9.90;;
84668;SDS011;74897;42.704;23.318;2024-03-06T10:57:34;9.07;;;6.50;;
84668;SDS011;74897;42.704;23.318;2024-03-06T11:00:00;14.38;;;6.75;;
84668;SDS011;74897;42.704;23.318;2024-03-06T11:02:26;8.77;;;6.32;;
84668;SDS011;74897;42.704;23.318;2024-03-06T11:04:52;10.70;;;6.55;;
84668;SDS011;74897;42.704;23.318;2024-03-06T11:07:18;10.63;;;7.90;;
84668;SDS011;74897;42.704;23.318;2024-03-06T11:09:43;10.95;;;7.75;;
84668;SDS011;74897;42.704;23.318;2024-03-06T11:12:09;11.77;;;8.20;;
84668;SDS011;74897;42.704;23.318;2024-03-06T11:14:38;9.73;;;6.75;;
84668;SDS011;74897;42.704;23.318;2024-03-06T11:17:04;8.55;;;6.80;;
84668;SDS011;74897;42.704;23.318;2024-03-06T11:19:30;15.75;;;8.90;;
84668;SDS011;74897;42.704;23.318;2024-03-06T11:21:56;10.50;;;6.22;;
84668;SDS011;74897;42.704;23.318;2024-03-06T11:24:34;8.82;;;6.10;;
84668;SDS011;74897;42.704;23.318;2024-03-06T11:27:00;9.15;;;6.30;;
84668;SDS011;74897;42.704;23.318;2024-03-06T11:29:29;12.63;;;6.57;;
84668;SDS011;74897;42.704;23.318;2024-03-06T11:32:14;8.88;;;6.53;;
84668;SDS011;74897;42.704;23.318;2024-03-06T11:34:39;7.13;;;5.65;;
84668;SDS011;74897;42.704;23.318;2024-03-06T11:37:05;11.30;;;5.93;;
84668;SDS011;74897;42.704;23.318;2024-03-06T11:39:35;8.82;;;6.28;;
84668;SDS011;74897;42.704;23.318;2024-03-06T11:42:01;6.90;;;6.07;;
84668;SDS011;74897;42.704;23.318;2024-03-06T11:44:27;8.68;;;5.78;;
84668;SDS011;74897;42.704;23.318;2024-03-06T11:49:23;6.97;;;5.47;;
84668;SDS011;74897;42.704;23.318;2024-03-06T11:51:57;11.98;;;5.65;;
84668;SDS011;74897;42.704;23.318;2024-03-06T11:54:23;7.45;;;5.78;;
84668;SDS011;74897;42.704;23.318;2024-03-06T11:56:49;7.28;;;5.82;;
84668;SDS011;74897;42.704;23.318;2024-03-06T11:59:24;6.97;;;5.78;;
84668;SDS011;74897;42.704;23.318;2024-03-06T12:01:50;8.57;;;6.05;;
84668;SDS011;74897;42.704;23.318;2024-03-06T12:04:18;6.75;;;5.60;;
84668;SDS011;74897;42.704;23.318;2024-03-06T12:06:43;8.95;;;5.70;;
84668;SDS011;74897;42.704;23.318;2024-03-06T12:09:09;6.70;;;5.93;;
84668;SDS011;74897;42.704;23.318;2024-03-06T12:11:36;8.00;;;5.85;;
84668;SDS011;74897;42.704;23.318;2024-03-06T12:14:02;6.82;;;5.60;;
84668;SDS011;74897;42.704;23.318;2024-03-06T12:16:27;7.70;;;6.05;;
84668;SDS011;74897;42.704;23.318;2024-03-06T12:18:56;10.05;;;8.00;;
84668;SDS011;74897;42.704;23.318;2024-03-06T12:21:23;10.43;;;6.40;;
84668;SDS011;74897;42.704;23.318;2024-03-06T12:24:01;9.50;;;6.57;;
84668;SDS011;74897;42.704;23.318;2024-03-06T12:26:27;11.73;;;8.68;;
84668;SDS011;74897;42.704;23.318;2024-03-06T12:28:53;15.32;;;9.05;;
84668;SDS011;74897;42.704;23.318;2024-03-06T12:31:28;8.50;;;7.47;;
84668;SDS011;74897;42.704;23.318;2024-03-06T12:33:57;9.68;;;6.50;;
84668;SDS011;74897;42.704;23.318;2024-03-06T12:36:24;10.02;;;6.10;;
84668;SDS011;74897;42.704;23.318;2024-03-06T12:38:54;6.80;;;4.88;;
84668;SDS011;74897;42.704;23.318;2024-03-06T12:41:19;7.22;;;4.93;;
84668;SDS011;74897;42.704;23.318;2024-03-06T12:43:45;9.55;;;5.30;;
84668;SDS011;74897;42.704;23.318;2024-03-06T12:46:10;7.75;;;5.70;;
84668;SDS011;74897;42.704;23.318;2024-03-06T12:48:35;7.80;;;4.85;;
84668;SDS011;74897;42.704;23.318;2024-03-06T12:51:01;6.03;;;4.63;;
84668;SDS011;74897;42.704;23.318;2024-03-06T12:53:30;6.03;;;4.90;;
84668;SDS011;74897;42.704;23.318;2024-03-06T12:55:55;7.90;;;4.38;;
84668;SDS011;74897;42.704;23.318;2024-03-06T12:58:21;7.30;;;4.55;;
84668;SDS011;74897;42.704;23.318;2024-03-06T13:00:46;5.63;;;4.43;;
84668;SDS011;74897;42.704;23.318;2024-03-06T13:03:12;5.72;;;4.60;;
84668;SDS011;74897;42.704;23.318;2024-03-06T13:05:37;5.75;;;4.15;;
84668;SDS011;74897;42.704;23.318;2024-03-06T13:08:02;5.00;;;3.88;;
84668;SDS011;74897;42.704;23.318;2024-03-06T13:10:28;5.43;;;4.90;;
84668;SDS011;74897;42.704;23.318;2024-03-06T13:12:53;4.72;;;4.25;;
84668;SDS011;74897;42.704;23.318;2024-03-06T13:15:19;6.90;;;5.13;;
84668;SDS011;74897;42.704;23.318;2024-03-06T13:17:45;4.25;;;3.50;;
84668;SDS011;74897;42.704;23.318;2024-03-06T13:20:10;4.55;;;3.60;;
84668;SDS011;74897;42.704;23.318;2024-03-06T13:22:38;8.23;;;4.03;;
84668;SDS011;74897;42.704;23.318;2024-03-06T13:25:04;9.30;;;4.25;;
84668;SDS011;74897;42.704;23.318;2024-03-06T13:27:30;4.72;;;4.32;;
84668;SDS011;74897;42.704;23.318;2024-03-06T13:29:55;6.18;;;4.65;;
84668;SDS011;74897;42.704;23.318;2024-03-06T13:32:20;5.47;;;4.38;;
84668;SDS011;74897;42.704;23.318;2024-03-06T13:34:46;6.25;;;3.90;;
84668;SDS011;74897;42.704;23.318;2024-03-06T13:37:11;4.82;;;4.10;;
84668;SDS011;74897;42.704;23.318;2024-03-06T13:39:37;4.72;;;4.20;;
84668;SDS011;74897;42.704;23.318;2024-03-06T13:42:04;4.40;;;4.00;;
84668;SDS011;74897;42.704;23.318;2024-03-06T13:44:31;5.13;;;4.47;;
84668;SDS011;74897;42.704;23.318;2024-03-06T13:46:56;6.43;;;4.63;;
84668;SDS011;74897;42.704;23.318;2024-03-06T13:49:40;5.85;;;4.22;;
84668;SDS011;74897;42.704;23.318;2024-03-06T13:52:06;5.03;;;4.10;;
84668;SDS011;74897;42.704;23.318;2024-03-06T13:54:32;6.18;;;4.18;;
84668;SDS011;74897;42.704;23.318;2024-03-06T13:56:58;6.95;;;4.75;;
84668;SDS011;74897;42.704;23.318;2024-03-06T13:59:27;9.40;;;5.03;;
84668;SDS011;74897;42.704;23.318;2024-03-06T14:01:52;5.93;;;4.97;;
84668;SDS011;74897;42.704;23.318;2024-03-06T14:04:18;6.90;;;4.80;;
84668;SDS011;74897;42.704;23.318;2024-03-06T14:06:44;8.77;;;4.85;;
84668;SDS011;74897;42.704;23.318;2024-03-06T14:09:09;4.97;;;4.53;;
84668;SDS011;74897;42.704;23.318;2024-03-06T14:11:34;4.80;;;3.88;;